Time;durP1;ratioP1;P1;durP2;ratioP2;P2;SDS_P1;SDS_P2;PMS_P1;PMS_P2;Temp;Humidity;BMP_temperature;BMP_pressure;BME280_temperature;BME280_humidity;BME280_pressure;Samples;Min_cycle;Max_cycle;Signal;HPM_P1;HPM_P2
2022/08/12 00:44:44;;;;;;;5.17;2.23;;;22.80;99.90;;;;;;5020196;28;20202;-48
2022/08/12 00:47:14;;;;;;;3.33;1.90;;;22.70;99.90;;;;;;5020440;28;20768;-48
2022/08/12 00:49:54;;;;;;;3.83;2.40;;;22.60;99.90;;;;;;5020210;28;20671;-48
2022/08/12 00:52:22;;;;;;;3.90;2.10;;;22.50;99.90;;;;;;5020477;28;20296;-47
2022/08/12 00:54:56;;;;;;;5.50;2.40;;;22.70;99.90;;;;;;5016327;28;20669;-46
2022/08/12 00:57:28;;;;;;;5.67;2.50;;;22.60;99.90;;;;;;5019660;28;20209;-48
2022/08/12 01:00:01;;;;;;;4.40;2.30;;;22.60;99.90;;;;;;5018089;28;20203;-47
2022/08/12 01:02:33;;;;;;;5.03;2.40;;;22.50;99.90;;;;;;5021074;28;20209;-48
2022/08/12 01:13:33;;;;;;;3.30;2.50;;;22.50;99.90;;;;;;5021166;28;20725;-48
2022/08/12 01:16:03;;;;;;;3.33;2.60;;;22.40;99.90;;;;;;5020646;28;20286;-48
2022/08/12 01:18:33;;;;;;;3.43;2.33;;;22.40;99.90;;;;;;5020522;28;20256;-47
2022/08/12 01:21:30;;;;;;;3.80;2.47;;;22.40;99.90;;;;;;5020737;28;20236;-48
2022/08/12 01:24:46;;;;;;;7.53;2.73;;;22.40;99.90;;;;;;5021325;28;20238;-47
2022/08/12 01:27:14;;;;;;;4.23;2.67;;;22.20;99.90;;;;;;5019869;28;20211;-48
2022/08/12 01:29:42;;;;;;;3.97;2.43;;;22.30;99.90;;;;;;5019611;28;20258;-48
2022/08/12 01:32:13;;;;;;;3.97;2.40;;;22.30;99.90;;;;;;5014965;28;20206;-47
2022/08/12 01:34:49;;;;;;;4.17;2.60;;;22.30;99.90;;;;;;5019147;28;20229;-47
2022/08/12 01:37:21;;;;;;;5.40;2.30;;;22.30;99.90;;;;;;5019236;28;20206;-48
2022/08/12 01:39:53;;;;;;;4.93;2.87;;;22.30;99.90;;;;;;5020521;28;20206;-46
2022/08/12 01:42:46;;;;;;;5.77;2.40;;;22.30;99.90;;;;;;5018987;28;20209;-48
2022/08/12 01:45:16;;;;;;;5.63;2.60;;;22.20;99.90;;;;;;5019822;28;20299;-47
2022/08/12 01:48:02;;;;;;;4.77;2.43;;;22.20;99.90;;;;;;5019566;28;20299;-46
2022/08/12 01:51:11;;;;;;;3.03;2.63;;;22.10;99.90;;;;;;5020129;28;20644;-46
2022/08/12 01:54:05;;;;;;;5.30;2.90;;;22.20;99.90;;;;;;5018080;28;20231;-47
2022/08/12 01:56:44;;;;;;;5.30;2.67;;;22.10;99.90;;;;;;5015939;28;20241;-46
2022/08/12 02:02:07;;;;;;;7.10;2.80;;;22.10;99.90;;;;;;5018425;28;20731;-47
2022/08/12 02:14:05;;;;;;;3.27;2.70;;;22.00;99.90;;;;;;5019817;28;20244;-48
2022/08/12 02:16:40;;;;;;;3.50;2.90;;;21.90;99.90;;;;;;5017206;28;20205;-48
2022/08/12 02:19:33;;;;;;;5.30;4.00;;;21.80;99.90;;;;;;5020474;28;20603;-47
2022/08/12 02:22:19;;;;;;;3.60;3.10;;;21.80;99.90;;;;;;5019702;28;20564;-46
2022/08/12 02:24:49;;;;;;;5.00;2.90;;;21.70;99.90;;;;;;5019350;28;20731;-47
2022/08/12 02:27:19;;;;;;;4.60;3.27;;;21.70;99.90;;;;;;5018345;28;20197;-48
2022/08/12 02:29:47;;;;;;;6.60;3.03;;;21.70;99.90;;;;;;5019350;28;20544;-47
2022/08/12 02:32:14;;;;;;;5.70;3.10;;;21.80;99.90;;;;;;5019703;28;20209;-46
2022/08/12 02:34:43;;;;;;;5.00;3.83;;;21.70;99.90;;;;;;5018572;28;20677;-47
2022/08/12 02:37:14;;;;;;;5.67;3.50;;;21.80;99.90;;;;;;5019368;28;20295;-48
2022/08/12 02:39:47;;;;;;;4.07;3.27;;;21.80;99.90;;;;;;5020102;28;20208;-48
2022/08/12 02:42:17;;;;;;;5.33;3.90;;;21.70;99.90;;;;;;5018933;28;20203;-47
2022/08/12 02:44:49;;;;;;;5.60;3.73;;;21.70;99.90;;;;;;5019652;28;20568;-48
2022/08/12 02:47:19;;;;;;;3.90;3.47;;;21.70;99.90;;;;;;5017446;28;20240;-46
2022/08/12 02:50:08;;;;;;;6.67;4.67;;;21.60;99.90;;;;;;5025320;28;20210;-48
2022/08/12 02:52:36;;;;;;;4.80;3.70;;;21.70;99.90;;;;;;5018303;28;20207;-46
2022/08/12 02:55:32;;;;;;;5.80;3.63;;;21.60;99.90;;;;;;5018242;28;20233;-48
2022/08/12 02:58:11;;;;;;;4.50;3.80;;;21.70;99.90;;;;;;5018951;28;20216;-47
2022/08/12 03:00:42;;;;;;;6.13;4.27;;;21.60;99.90;;;;;;5020306;28;20213;-47
2022/08/12 03:03:13;;;;;;;4.13;3.73;;;21.50;99.90;;;;;;5020658;28;20240;-47
2022/08/12 03:05:47;;;;;;;3.90;3.50;;;21.20;99.90;;;;;;5022811;28;20215;-47
2022/08/12 03:08:18;;;;;;;6.50;4.80;;;21.40;99.90;;;;;;5022704;28;20252;-47
2022/08/12 03:11:19;;;;;;;4.10;3.70;;;21.40;99.90;;;;;;5022613;28;20287;-46
2022/08/12 03:13:56;;;;;;;5.30;3.77;;;21.50;99.90;;;;;;5023102;28;20241;-47
2022/08/12 03:16:26;;;;;;;4.47;3.73;;;21.50;99.90;;;;;;5020187;28;20211;-48
2022/08/12 03:18:53;;;;;;;5.57;3.97;;;21.50;99.90;;;;;;5017896;28;20798;-47
2022/08/12 03:21:20;;;;;;;6.17;4.00;;;21.50;99.90;;;;;;5020556;28;20247;-48
2022/08/12 03:24:11;;;;;;;5.47;4.00;;;21.40;99.90;;;;;;5022767;28;20296;-47
2022/08/12 03:26:38;;;;;;;9.73;4.40;;;21.30;99.90;;;;;;5023012;28;20243;-46
2022/08/12 03:29:06;;;;;;;5.00;4.10;;;21.30;99.90;;;;;;5019023;28;20267;-48
2022/08/12 03:31:33;;;;;;;6.13;4.10;;;21.20;99.90;;;;;;5021920;28;20212;-48
2022/08/12 03:34:01;;;;;;;5.93;3.93;;;21.30;99.90;;;;;;5018718;28;20628;-48
2022/08/12 03:36:36;;;;;;;7.97;4.67;;;21.20;99.90;;;;;;5022472;28;20571;-49
2022/08/12 03:42:08;;;;;;;7.17;3.70;;;21.30;99.90;;;;;;5023045;28;20205;-48
2022/08/12 04:01:26;;;;;;;4.87;4.37;;;21.10;99.90;;;;;;5020700;28;20263;-47
2022/08/12 04:03:53;;;;;;;6.23;4.30;;;21.10;99.90;;;;;;5022303;28;20209;-47
2022/08/12 04:06:23;;;;;;;5.57;3.83;;;21.00;99.90;;;;;;5022109;28;20208;-47
2022/08/12 04:09:04;;;;;;;5.47;4.40;;;21.00;99.90;;;;;;5021779;28;20215;-47
2022/08/12 04:14:28;;;;;;;6.90;4.07;;;21.10;99.90;;;;;;5021592;28;20259;-47
2022/08/12 04:16:56;;;;;;;6.30;5.00;;;21.00;99.90;;;;;;5021869;28;20239;-47
2022/08/12 04:19:24;;;;;;;5.07;4.57;;;21.00;99.90;;;;;;5021306;28;20197;-48
2022/08/12 04:21:54;;;;;;;8.17;4.33;;;21.00;99.90;;;;;;5021908;28;20652;-49
2022/08/12 04:24:35;;;;;;;6.80;4.47;;;20.90;99.90;;;;;;5021799;28;20291;-48
2022/08/12 04:27:09;;;;;;;4.87;4.13;;;20.90;99.90;;;;;;5021637;28;20209;-47
2022/08/12 04:29:37;;;;;;;8.87;4.30;;;20.90;99.90;;;;;;5019664;28;20212;-49
2022/08/12 04:32:24;;;;;;;5.37;4.57;;;20.90;99.90;;;;;;5020424;28;20213;-47
2022/08/12 04:34:52;;;;;;;8.73;4.70;;;20.90;99.90;;;;;;5021726;28;20232;-47
2022/08/12 04:37:19;;;;;;;6.63;4.60;;;20.90;99.90;;;;;;5020310;28;20255;-49
2022/08/12 04:39:47;;;;;;;7.50;4.53;;;20.90;99.90;;;;;;5021460;28;20208;-49
2022/08/12 04:42:15;;;;;;;6.07;4.50;;;20.90;99.90;;;;;;5020844;28;20205;-47
2022/08/12 04:44:43;;;;;;;6.57;4.80;;;20.80;99.90;;;;;;5015035;28;20700;-48
2022/08/12 04:47:12;;;;;;;5.83;4.33;;;20.90;99.90;;;;;;5020121;28;20331;-48
2022/08/12 04:49:42;;;;;;;6.60;5.40;;;20.80;99.90;;;;;;5015976;28;20877;-49
2022/08/12 04:52:09;;;;;;;5.30;4.40;;;20.70;99.90;;;;;;5020886;28;20210;-48
2022/08/12 04:54:37;;;;;;;5.63;4.90;;;20.70;99.90;;;;;;5014812;28;20232;-49
2022/08/12 04:57:08;;;;;;;5.33;4.80;;;20.70;99.90;;;;;;5018472;28;20241;-49
2022/08/12 04:59:36;;;;;;;9.33;4.50;;;20.80;99.90;;;;;;5021286;28;20232;-48
2022/08/12 05:02:18;;;;;;;5.27;4.57;;;20.80;99.90;;;;;;5020305;28;20213;-47
2022/08/12 05:04:50;;;;;;;7.57;4.83;;;20.80;99.90;;;;;;5021208;28;20215;-47
2022/08/12 05:07:18;;;;;;;5.17;4.67;;;20.80;99.90;;;;;;5020190;28;20312;-47
2022/08/12 05:09:45;;;;;;;8.90;4.40;;;20.80;99.90;;;;;;5020907;28;20561;-48
2022/08/12 05:12:33;;;;;;;6.93;4.50;;;20.80;99.90;;;;;;5020147;28;20287;-48
2022/08/12 05:15:00;;;;;;;7.43;4.57;;;20.70;99.90;;;;;;5019041;28;20268;-48
2022/08/12 05:17:27;;;;;;;8.63;3.80;;;20.80;99.90;;;;;;5019764;28;20208;-49
2022/08/12 05:19:54;;;;;;;4.70;4.20;;;20.80;99.90;;;;;;5019175;28;20224;-47
2022/08/12 05:22:25;;;;;;;5.13;4.03;;;20.90;99.90;;;;;;5018917;28;20715;-48
2022/08/12 05:24:52;;;;;;;5.73;4.10;;;20.80;99.90;;;;;;5020416;28;20251;-48
2022/08/12 05:27:21;;;;;;;7.50;4.70;;;20.80;99.90;;;;;;5019328;28;20214;-48
2022/08/12 05:29:48;;;;;;;6.47;4.90;;;20.70;99.90;;;;;;5020108;28;20209;-48
2022/08/12 05:32:34;;;;;;;6.43;4.93;;;20.70;99.90;;;;;;5032676;28;20204;-48
2022/08/12 05:35:05;;;;;;;6.17;4.50;;;20.80;99.90;;;;;;5019412;28;20213;-48
2022/08/12 05:37:33;;;;;;;6.20;4.40;;;20.80;99.90;;;;;;5019465;28;20296;-48
2022/08/12 05:40:02;;;;;;;5.00;4.23;;;20.90;99.90;;;;;;5020257;28;20205;-48
2022/08/12 05:42:36;;;;;;;5.33;3.80;;;20.90;99.90;;;;;;5018936;28;20680;-47
2022/08/12 05:45:04;;;;;;;6.17;4.23;;;21.10;99.90;;;;;;5015311;28;20200;-48
2022/08/12 05:47:31;;;;;;;5.33;4.10;;;21.10;99.90;;;;;;5019789;28;20253;-48
2022/08/12 05:50:18;;;;;;;6.17;3.43;;;21.10;99.90;;;;;;5019981;28;20224;-47
2022/08/12 05:52:45;;;;;;;4.67;4.13;;;21.20;99.90;;;;;;5012829;28;20205;-48
2022/08/12 05:55:14;;;;;;;6.20;4.10;;;21.30;99.90;;;;;;5017485;28;20597;-48
2022/08/12 05:57:43;;;;;;;5.83;4.23;;;21.30;99.90;;;;;;5018916;28;20375;-49
2022/08/12 06:00:10;;;;;;;5.87;3.90;;;21.40;99.90;;;;;;5009297;28;20205;-48
2022/08/12 06:02:37;;;;;;;6.30;4.27;;;21.40;99.90;;;;;;5014050;28;20803;-46
2022/08/12 06:05:09;;;;;;;6.83;4.50;;;21.40;99.90;;;;;;5018882;28;20314;-47
2022/08/12 06:07:44;;;;;;;4.77;4.30;;;21.60;99.90;;;;;;5019573;28;20660;-48
2022/08/12 06:10:31;;;;;;;6.97;4.57;;;21.50;99.90;;;;;;5019825;28;20205;-50
2022/08/12 06:13:01;;;;;;;5.57;4.30;;;21.60;99.90;;;;;;5019330;28;20212;-48
2022/08/12 06:15:28;;;;;;;6.73;4.40;;;21.60;99.90;;;;;;5019746;28;20703;-47
2022/08/12 06:18:11;;;;;;;6.40;4.90;;;21.80;99.90;;;;;;5016728;28;20200;-49
2022/08/12 06:20:46;;;;;;;6.63;4.57;;;21.90;99.90;;;;;;5020250;28;20239;-47
2022/08/12 06:23:14;;;;;;;6.70;5.10;;;21.90;99.90;;;;;;5019210;28;20209;-47
2022/08/12 06:25:42;;;;;;;6.20;5.07;;;21.90;99.90;;;;;;5019470;28;20234;-49
2022/08/12 06:28:16;;;;;;;8.77;4.80;;;21.90;99.90;;;;;;5018540;28;20254;-48
2022/08/12 06:30:45;;;;;;;6.00;5.13;;;22.00;99.90;;;;;;5019262;28;20251;-48
2022/08/12 06:33:33;;;;;;;8.40;5.63;;;22.20;99.90;;;;;;5019046;28;20255;-48
2022/08/12 06:36:22;;;;;;;7.50;5.70;;;22.20;99.90;;;;;;5019020;28;20699;-48
2022/08/12 06:38:49;;;;;;;8.17;6.17;;;22.20;99.90;;;;;;5023673;28;20236;-47
2022/08/12 06:44:02;;;;;;;7.03;5.73;;;22.40;99.90;;;;;;5023329;28;20200;-47
2022/08/12 06:46:35;;;;;;;7.57;5.90;;;22.50;99.90;;;;;;5022622;28;20771;-48
2022/08/12 06:49:03;;;;;;;7.50;5.67;;;22.60;99.90;;;;;;5021002;28;20275;-48
2022/08/12 06:51:30;;;;;;;10.53;5.23;;;22.80;99.90;;;;;;5018908;28;20205;-49
2022/08/12 06:53:59;;;;;;;7.50;5.87;;;23.00;99.90;;;;;;5022646;28;20695;-48
2022/08/12 06:56:27;;;;;;;11.33;5.60;;;23.20;99.90;;;;;;5022387;28;20678;-47
2022/08/12 06:59:14;;;;;;;7.47;5.70;;;23.40;99.90;;;;;;5022815;28;20590;-49
2022/08/12 07:01:41;;;;;;;10.47;5.30;;;23.50;99.90;;;;;;5021563;28;20250;-49
2022/08/12 07:04:18;;;;;;;8.20;5.93;;;23.70;99.90;;;;;;5021736;28;20200;-49
2022/08/12 07:07:05;;;;;;;6.97;5.60;;;23.80;99.90;;;;;;5022883;28;20209;-46
2022/08/12 07:09:32;;;;;;;7.23;6.43;;;24.10;99.90;;;;;;5018392;28;20315;-46
2022/08/12 07:12:20;;;;;;;7.00;6.07;;;24.10;99.90;;;;;;5022686;28;20215;-48
2022/08/12 07:14:50;;;;;;;7.00;5.73;;;24.10;99.90;;;;;;5022639;28;20698;-48
2022/08/12 07:17:17;;;;;;;6.80;5.67;;;24.40;99.90;;;;;;5022841;28;20237;-46
2022/08/12 07:19:45;;;;;;;7.40;5.83;;;24.60;99.90;;;;;;5022935;28;20208;-49
2022/08/12 07:22:15;;;;;;;9.83;5.17;;;24.60;99.90;;;;;;5022386;28;20227;-48
2022/08/12 07:25:29;;;;;;;7.27;6.30;;;24.90;99.90;;;;;;5022113;28;20201;-48
2022/08/12 07:27:29;;;;;;;9.20;5.50;;;25.20;99.90;;;;;;5022541;28;20216;-47
2022/08/12 07:29:56;;;;;;;9.43;5.47;;;25.20;99.90;;;;;;5022481;28;20300;-47
2022/08/12 07:32:30;;;;;;;10.57;5.90;;;25.30;99.90;;;;;;5020701;28;20237;-48
2022/08/12 07:34:57;;;;;;;9.30;5.82;;;25.40;99.90;;;;;;5022687;28;20299;-48
2022/08/12 07:37:24;;;;;;;7.10;5.72;;;25.50;99.90;;;;;;5022225;28;20209;-48
2022/08/12 07:39:51;;;;;;;6.45;5.45;;;25.90;99.90;;;;;;5022268;28;20255;-49
2022/08/12 07:42:27;;;;;;;6.67;5.00;;;25.90;99.90;;;;;;5021755;28;20207;-48
2022/08/12 07:44:55;;;;;;;8.73;5.40;;;26.00;99.90;;;;;;5022973;28;20248;-48
2022/08/12 07:47:22;;;;;;;7.40;5.00;;;25.90;99.90;;;;;;5021461;28;20204;-49
2022/08/12 07:49:49;;;;;;;7.33;5.53;;;25.80;99.90;;;;;;5021507;28;20209;-47
2022/08/12 07:52:33;;;;;;;6.77;5.37;;;25.90;99.90;;;;;;5021758;28;20235;-48
2022/08/12 07:55:00;;;;;;;5.90;4.80;;;26.20;99.90;;;;;;5017981;28;20233;-48
2022/08/12 07:57:27;;;;;;;7.87;5.03;;;26.40;99.90;;;;;;5020268;28;20268;-48
2022/08/12 07:59:54;;;;;;;9.57;5.03;;;26.60;99.90;;;;;;5018750;28;20236;-47
2022/08/12 08:02:22;;;;;;;9.03;4.73;;;26.60;99.90;;;;;;5020879;28;20239;-47
2022/08/12 08:04:56;;;;;;;6.47;4.97;;;26.70;99.90;;;;;;5021057;28;20584;-49
2022/08/12 08:07:28;;;;;;;7.13;5.73;;;26.80;99.90;;;;;;5020805;28;20327;-49
2022/08/12 08:09:58;;;;;;;8.52;4.72;;;26.80;99.90;;;;;;5020801;28;20205;-48
2022/08/12 08:15:13;;;;;;;8.82;4.93;;;26.90;99.90;;;;;;5020619;28;20276;-49
2022/08/12 08:17:58;;;;;;;8.50;4.95;;;27.20;99.90;;;;;;5018364;28;20243;-49
2022/08/12 08:20:28;;;;;;;7.90;4.53;;;27.50;99.90;;;;;;5036956;28;20726;-50
2022/08/12 08:22:56;;;;;;;9.23;4.82;;;27.50;99.90;;;;;;5020206;28;20689;-51
2022/08/12 08:25:30;;;;;;;7.80;4.38;;;27.50;99.90;;;;;;5021683;28;20588;-49
2022/08/12 08:28:16;;;;;;;9.60;4.40;;;27.90;99.90;;;;;;5020287;28;20631;-48
2022/08/12 08:30:46;;;;;;;6.50;4.20;;;28.10;99.90;;;;;;5021132;28;20299;-50
2022/08/12 08:33:16;;;;;;;7.97;3.50;;;28.20;99.90;;;;;;5020688;28;20209;-48
2022/08/12 08:36:05;;;;;;;6.03;3.90;;;28.00;99.90;;;;;;5020643;28;20691;-49
2022/08/12 08:38:44;;;;;;;10.43;4.60;;;28.50;99.90;;;;;;5021251;28;20205;-49
2022/08/12 08:44:28;;;;;;;6.38;3.65;;;28.60;99.90;;;;;;5020256;28;20213;-49
2022/08/12 08:46:55;;;;;;;5.10;3.30;;;28.50;99.90;;;;;;5020484;28;20601;-48
2022/08/12 08:49:22;;;;;;;7.90;3.22;;;28.70;99.90;;;;;;5020254;28;20259;-48
2022/08/12 08:51:49;;;;;;;4.05;2.78;;;29.00;99.90;;;;;;5019413;28;20201;-49
2022/08/12 08:54:16;;;;;;;6.35;3.13;;;29.20;99.90;;;;;;5021287;28;20225;-48
2022/08/12 08:56:45;;;;;;;6.05;3.30;;;29.00;99.90;;;;;;5019785;28;20265;-48
2022/08/12 08:59:12;;;;;;;5.90;3.35;;;29.10;99.90;;;;;;5014577;28;20256;-49
2022/08/12 09:01:40;;;;;;;6.07;3.38;;;29.40;99.90;;;;;;5018624;28;20255;-49
2022/08/12 09:04:11;;;;;;;5.75;3.38;;;29.60;99.90;;;;;;5018910;28;20205;-49
2022/08/12 09:06:59;;;;;;;5.47;3.03;;;29.30;99.90;;;;;;5019435;28;20209;-48
2022/08/12 09:09:46;;;;;;;6.43;3.13;;;29.70;99.90;;;;;;5019659;28;20728;-51
2022/08/12 09:15:24;;;;;;;3.30;2.92;;;30.00;99.90;;;;;;5019850;28;20218;-50
2022/08/12 09:18:04;;;;;;;3.33;2.55;;;29.90;99.90;;;;;;5019251;28;20672;-47
2022/08/12 09:20:51;;;;;;;4.68;2.72;;;30.00;99.90;;;;;;5019978;28;20216;-49
2022/08/12 09:23:18;;;;;;;3.53;2.85;;;30.10;99.90;;;;;;5018779;28;20201;-50
2022/08/12 09:26:08;;;;;;;5.85;2.60;;;30.20;99.90;;;;;;5020373;28;20217;-51
2022/08/12 09:28:35;;;;;;;8.48;2.50;;;30.00;99.90;;;;;;5019822;28;20224;-49
2022/08/12 09:31:04;;;;;;;6.07;2.78;;;30.20;99.90;;;;;;5019075;28;20296;-50
2022/08/12 09:33:51;;;;;;;5.18;2.55;;;30.60;99.90;;;;;;5019284;28;20213;-49
2022/08/12 09:36:40;;;;;;;6.03;2.28;;;30.20;99.90;;;;;;5018607;28;20325;-49
2022/08/12 09:39:30;;;;;;;4.97;2.58;;;30.40;99.90;;;;;;5019496;28;20292;-49
2022/08/12 09:45:21;;;;;;;4.15;2.67;;;30.90;99.90;;;;;;5019328;28;20219;-51
2022/08/12 09:48:08;;;;;;;4.82;2.60;;;31.10;99.90;;;;;;5020272;28;20303;-50
2022/08/12 09:50:35;;;;;;;4.03;2.65;;;31.30;99.90;;;;;;5017602;28;20212;-51
2022/08/12 09:53:06;;;;;;;4.65;2.65;;;31.20;99.90;;;;;;5015190;28;20254;-52
2022/08/12 09:55:42;;;;;;;6.60;2.60;;;31.10;99.90;;;;;;5019035;28;20697;-51
2022/08/12 09:58:29;;;;;;;3.92;2.35;;;31.10;99.90;;;;;;5018581;28;20257;-49
2022/08/12 10:01:18;;;;;;;4.55;2.45;;;30.70;99.90;;;;;;5020251;28;20435;-49
2022/08/12 10:03:49;;;;;;;4.13;2.40;;;30.90;99.90;;;;;;5019893;28;20208;-50
2022/08/12 10:06:30;;;;;;;3.78;2.30;;;30.80;99.90;;;;;;5019156;28;20557;-49
2022/08/12 10:09:04;;;;;;;4.78;2.42;;;30.80;99.90;;;;;;5018921;28;20215;-49
2022/08/12 10:14:37;;;;;;;3.40;2.42;;;31.10;99.90;;;;;;5023421;28;20213;-49
2022/08/12 10:17:05;;;;;;;2.95;2.60;;;31.30;99.90;;;;;;5018724;28;20287;-49
2022/08/12 10:19:36;;;;;;;5.70;2.55;;;31.00;99.90;;;;;;5023673;28;20217;-49
2022/08/12 10:22:04;;;;;;;4.93;2.60;;;31.20;99.90;;;;;;5022901;28;20559;-48
2022/08/12 10:29:35;;;;;;;3.38;2.75;;;31.10;99.90;;;;;;5023879;28;20667;-47
2022/08/12 10:30:38;;;;;;;5.45;2.55;;;30.60;99.90;;;;;;5024690;28;20584;-49
2022/08/12 10:33:24;;;;;;;3.65;2.72;;;30.40;99.90;;;;;;5023079;28;20212;-50
2022/08/12 10:35:58;;;;;;;5.97;2.53;;;30.70;99.90;;;;;;5022628;28;20438;-50
2022/08/12 10:38:25;;;;;;;7.10;2.70;;;30.80;99.90;;;;;;5022787;28;20197;-49
2022/08/12 10:44:14;;;;;;;5.10;2.50;;;30.80;99.90;;;;;;5023425;28;20569;-48
2022/08/12 10:46:46;;;;;;;9.23;2.97;;;30.70;99.90;;;;;;5018637;28;20204;-50
2022/08/12 10:49:16;;;;;;;5.78;2.95;;;30.80;99.90;;;;;;5022233;28;20215;-52
2022/08/12 10:52:04;;;;;;;3.22;2.40;;;30.70;99.90;;;;;;5022046;28;20290;-50
2022/08/12 10:54:54;;;;;;;3.28;2.47;;;30.70;99.90;;;;;;5022898;28;20323;-49
2022/08/12 10:57:25;;;;;;;4.53;2.22;;;30.70;99.90;;;;;;5021508;28;20251;-49
2022/08/12 11:00:13;;;;;;;4.57;2.70;;;30.90;99.90;;;;;;5023042;28;20758;-51
2022/08/12 11:03:00;;;;;;;3.63;2.22;;;31.00;99.90;;;;;;5022493;28;20628;-49
2022/08/12 11:05:47;;;;;;;2.33;1.98;;;30.80;99.90;;;;;;5021335;28;20304;-49
2022/08/12 11:08:37;;;;;;;4.35;2.80;;;31.00;99.90;;;;;;5021685;28;20212;-49
2022/08/12 11:11:13;;;;;;;2.60;2.17;;;31.10;99.90;;;;;;5022682;28;20271;-50
2022/08/12 11:13:45;;;;;;;4.63;2.40;;;31.20;99.90;;;;;;5023599;28;20258;-49
2022/08/12 11:16:16;;;;;;;3.83;2.53;;;31.30;99.90;;;;;;5021748;28;20226;-49
2022/08/12 11:18:48;;;;;;;6.38;2.30;;;31.50;99.90;;;;;;5021270;28;20201;-49
2022/08/12 11:21:21;;;;;;;8.07;2.85;;;31.60;99.90;;;;;;5021623;28;20271;-48
2022/08/12 11:24:08;;;;;;;3.22;2.50;;;31.70;99.90;;;;;;5021426;28;20205;-49
2022/08/12 11:26:56;;;;;;;3.90;2.45;;;31.70;99.90;;;;;;5021744;28;20302;-50
2022/08/12 11:29:30;;;;;;;2.75;2.28;;;31.60;99.90;;;;;;5022143;28;20246;-51
2022/08/12 11:32:17;;;;;;;5.40;2.70;;;31.80;99.90;;;;;;5021359;28;20275;-51
2022/08/12 11:34:43;;;;;;;5.53;2.63;;;32.20;99.90;;;;;;5022076;28;20412;-50
2022/08/12 11:37:20;;;;;;;4.45;2.30;;;32.20;99.90;;;;;;5022380;28;20221;-50
2022/08/12 11:39:54;;;;;;;2.95;2.63;;;32.20;99.90;;;;;;5021470;28;20592;-51
2022/08/12 11:42:35;;;;;;;6.28;2.10;;;32.00;99.90;;;;;;5020223;28;20212;-51
2022/08/12 11:45:12;;;;;;;5.78;2.35;;;32.00;99.90;;;;;;5022679;28;20208;-51
2022/08/12 11:47:43;;;;;;;2.42;2.17;;;32.10;99.90;;;;;;5021743;28;20205;-51
2022/08/12 11:50:10;;;;;;;3.72;2.33;;;32.70;99.90;;;;;;5021517;28;20209;-49
2022/08/12 11:52:47;;;;;;;3.53;2.30;;;32.50;99.90;;;;;;5020311;28;20282;-51
2022/08/12 11:55:25;;;;;;;3.60;2.83;;;32.30;99.90;;;;;;5022200;28;20225;-51
2022/08/12 11:57:56;;;;;;;5.10;2.15;;;32.70;99.90;;;;;;5019652;28;20283;-51
2022/08/12 12:00:43;;;;;;;4.80;2.50;;;33.10;99.90;;;;;;5020811;28;20316;-49
2022/08/12 12:03:30;;;;;;;5.28;2.65;;;32.90;99.90;;;;;;5022189;28;20219;-51
2022/08/12 12:06:16;;;;;;;2.95;2.20;;;33.50;99.90;;;;;;5021453;28;20657;-50
2022/08/12 12:08:44;;;;;;;5.88;2.47;;;33.10;99.90;;;;;;5021482;28;20211;-50
2022/08/12 12:11:20;;;;;;;4.90;2.80;;;33.60;99.90;;;;;;5021052;28;20201;-49
2022/08/12 12:13:48;;;;;;;2.83;2.50;;;33.20;99.90;;;;;;5021366;28;20201;-51
2022/08/12 12:16:36;;;;;;;2.40;2.20;;;32.90;99.90;;;;;;5019901;28;20294;-50
2022/08/12 12:19:07;;;;;;;3.40;2.50;;;33.00;99.90;;;;;;5017112;28;20252;-51
2022/08/12 12:21:37;;;;;;;3.42;2.45;;;33.10;99.90;;;;;;5019897;28;20200;-51
2022/08/12 12:24:17;;;;;;;2.63;2.42;;;33.10;99.90;;;;;;5020794;28;20204;-50
2022/08/12 12:26:49;;;;;;;3.90;2.20;;;33.40;99.90;;;;;;5022211;28;20276;-50
2022/08/12 12:29:30;;;;;;;3.40;2.40;;;33.50;99.90;;;;;;5021836;28;20236;-50
2022/08/12 12:32:18;;;;;;;4.88;2.65;;;34.10;99.90;;;;;;5021500;28;20264;-50
2022/08/12 12:34:56;;;;;;;5.57;3.05;;;34.40;99.90;;;;;;5021333;28;20201;-49
2022/08/12 12:37:50;;;;;;;3.88;2.63;;;34.10;99.90;;;;;;5019400;28;20221;-51
2022/08/12 12:40:45;;;;;;;3.97;2.78;;;33.90;99.90;;;;;;5021039;28;20211;-53
2022/08/12 12:43:17;;;;;;;3.33;2.30;;;34.10;99.90;;;;;;5020075;28;20552;-51
2022/08/12 12:46:04;;;;;;;4.32;2.55;;;34.00;99.90;;;;;;5020324;28;20200;-51
2022/08/12 12:48:31;;;;;;;2.90;2.22;;;33.70;99.90;;;;;;5016904;28;20218;-52
2022/08/12 12:51:16;;;;;;;5.30;2.40;;;34.20;99.90;;;;;;5020547;28;20296;-50
2022/08/12 12:54:03;;;;;;;5.53;2.17;;;34.20;99.90;;;;;;5020538;28;20235;-50
2022/08/12 12:56:39;;;;;;;5.97;2.70;;;34.30;99.90;;;;;;5019142;28;20224;-49
2022/08/12 12:59:07;;;;;;;5.35;2.13;;;34.60;99.90;;;;;;5019873;28;20256;-52
2022/08/12 13:01:54;;;;;;;5.07;2.60;;;34.90;99.90;;;;;;5019799;28;20324;-51
2022/08/12 13:04:21;;;;;;;4.43;2.45;;;34.60;99.90;;;;;;5020704;28;20205;-48
2022/08/12 13:06:50;;;;;;;4.28;2.50;;;34.50;99.90;;;;;;5019296;28;20204;-51
2022/08/12 13:09:18;;;;;;;4.78;2.67;;;34.50;99.90;;;;;;5018225;28;20211;-50
2022/08/12 13:11:49;;;;;;;2.50;2.28;;;34.60;99.90;;;;;;5019908;28;20212;-51
2022/08/12 13:14:21;;;;;;;2.78;2.33;;;34.70;99.90;;;;;;5019852;28;20282;-51
2022/08/12 13:16:55;;;;;;;6.10;2.60;;;34.00;99.90;;;;;;5020153;28;20231;-50
2022/08/12 13:19:23;;;;;;;3.95;2.30;;;34.20;99.90;;;;;;5017943;28;20208;-50
2022/08/12 13:22:19;;;;;;;4.50;2.97;;;34.20;99.90;;;;;;5020822;28;20738;-51
2022/08/12 13:24:51;;;;;;;3.08;2.15;;;33.70;99.90;;;;;;5019668;28;20292;-52
2022/08/12 13:27:28;;;;;;;4.35;2.33;;;33.80;99.90;;;;;;5019703;28;20244;-51
2022/08/12 13:30:05;;;;;;;3.15;2.20;;;33.80;99.90;;;;;;5020506;28;20235;-51
2022/08/12 13:32:32;;;;;;;4.90;2.50;;;33.60;99.90;;;;;;5018769;28;20235;-51
2022/08/12 13:35:01;;;;;;;3.45;2.75;;;33.90;99.90;;;;;;5021033;28;20200;-49
2022/08/12 13:37:54;;;;;;;4.78;2.55;;;34.10;99.90;;;;;;5019422;28;20253;-50
2022/08/12 13:40:32;;;;;;;3.28;2.60;;;34.00;99.90;;;;;;5019039;28;20200;-51
2022/08/12 13:43:00;;;;;;;4.68;2.40;;;34.00;99.90;;;;;;5018668;28;20612;-51
2022/08/12 13:45:32;;;;;;;4.40;2.63;;;33.90;99.90;;;;;;5020780;28;20205;-51
2022/08/12 13:48:01;;;;;;;2.85;2.45;;;34.00;99.90;;;;;;5025163;28;20267;-51
2022/08/12 13:50:32;;;;;;;4.88;2.75;;;34.00;99.90;;;;;;5001564;28;20217;-51
2022/08/12 13:53:08;;;;;;;3.05;2.47;;;33.60;99.90;;;;;;5018990;28;20205;-51
2022/08/12 13:55:55;;;;;;;6.97;2.38;;;33.40;99.90;;;;;;5019299;28;20239;-50
2022/08/12 13:58:29;;;;;;;2.70;2.50;;;33.60;99.90;;;;;;5015661;28;20734;-51
2022/08/12 14:00:57;;;;;;;3.25;2.60;;;33.80;99.90;;;;;;5014958;28;21160;-50
2022/08/12 14:03:25;;;;;;;3.35;2.38;;;33.80;99.90;;;;;;5019480;28;20196;-53
2022/08/12 14:06:12;;;;;;;6.93;2.40;;;33.90;99.90;;;;;;5020397;28;20668;-51
2022/08/12 14:08:42;;;;;;;3.60;2.22;;;33.70;99.90;;;;;;5019974;28;20208;-51
2022/08/12 14:11:09;;;;;;;4.80;2.63;;;34.00;99.90;;;;;;5019888;28;20296;-50
2022/08/12 14:13:40;;;;;;;5.70;3.88;;;34.00;99.90;;;;;;5018495;28;20300;-51
2022/08/12 14:16:28;;;;;;;3.78;3.47;;;34.00;99.90;;;;;;5017596;28;20233;-53
2022/08/12 14:19:15;;;;;;;4.38;2.28;;;33.80;99.90;;;;;;5020079;28;20425;-50
2022/08/12 14:21:52;;;;;;;2.88;2.58;;;33.40;99.90;;;;;;5020169;28;20715;-47
2022/08/12 14:24:36;;;;;;;3.72;2.40;;;33.10;99.90;;;;;;5019818;28;20288;-52
2022/08/12 14:27:08;;;;;;;3.72;2.63;;;33.40;99.90;;;;;;5019348;28;20220;-51
2022/08/12 14:29:41;;;;;;;4.85;2.60;;;33.40;99.90;;;;;;5019936;28;20617;-50
2022/08/12 14:32:33;;;;;;;3.08;2.60;;;33.40;99.90;;;;;;5018730;28;20235;-51
2022/08/12 14:35:01;;;;;;;3.50;2.10;;;33.40;99.90;;;;;;5021044;28;20215;-50
2022/08/12 14:37:28;;;;;;;3.88;2.38;;;33.30;99.90;;;;;;5018634;28;20220;-50
2022/08/12 14:40:15;;;;;;;4.22;2.53;;;33.30;99.90;;;;;;5017921;28;20219;-50
2022/08/12 14:42:48;;;;;;;5.10;2.50;;;33.40;99.90;;;;;;5018820;28;20210;-51
2022/08/12 14:45:16;;;;;;;3.00;2.53;;;33.20;99.90;;;;;;5018834;28;20220;-51
2022/08/12 14:47:52;;;;;;;5.10;2.30;;;33.10;99.90;;;;;;5017695;28;20232;-50
2022/08/12 14:50:24;;;;;;;4.13;2.35;;;33.00;99.90;;;;;;5018485;28;20278;-51
2022/08/12 14:53:13;;;;;;;7.15;2.45;;;33.00;99.90;;;;;;5019244;28;20212;-50
2022/08/12 14:56:01;;;;;;;4.00;2.40;;;32.60;99.90;;;;;;5019190;28;20296;-51
2022/08/12 15:01:50;;;;;;;4.72;2.10;;;33.00;99.90;;;;;;5021348;28;20580;-50
2022/08/12 15:04:26;;;;;;;5.22;2.33;;;32.90;99.90;;;;;;5022456;28;20208;-54
2022/08/12 15:06:53;;;;;;;3.42;2.00;;;32.80;99.90;;;;;;5023734;28;20656;-51
2022/08/12 15:09:20;;;;;;;6.10;2.30;;;32.70;99.90;;;;;;5021267;28;20652;-50
2022/08/12 15:11:55;;;;;;;3.45;2.17;;;32.70;99.90;;;;;;5022909;28;20196;-52
2022/08/12 15:14:30;;;;;;;2.58;2.38;;;32.70;99.90;;;;;;5022425;28;20232;-52
2022/08/12 15:16:58;;;;;;;3.63;2.50;;;32.70;99.90;;;;;;5022015;28;20221;-50
2022/08/12 15:19:29;;;;;;;2.30;2.10;;;32.70;99.90;;;;;;5022698;28;20639;-50